createdAt,value
2018-12-11T00:03:39.872Z,4.97
2018-12-11T00:08:39.203Z,3.73
2018-12-11T00:13:34.503Z,3.90
2018-12-11T00:18:35.766Z,3.67
2018-12-11T00:38:57.472Z,3.40
2018-12-11T00:43:52.167Z,3.10
2018-12-11T00:48:46.863Z,4.27
2018-12-11T00:53:41.581Z,4.37
2018-12-11T00:58:36.256Z,4.27
2018-12-11T01:03:34.660Z,2.83
2018-12-11T01:08:34.348Z,3.67
2018-12-11T01:13:32.212Z,3.27
2018-12-11T01:18:33.447Z,3.10
2018-12-11T01:23:32.023Z,2.97
2018-12-11T01:28:26.666Z,3.30
2018-12-11T01:33:21.362Z,5.07
2018-12-11T01:38:16.039Z,3.83
2018-12-11T01:43:10.653Z,4.33
2018-12-11T01:48:05.319Z,3.33
2018-12-11T01:52:59.970Z,4.07
2018-12-11T01:57:54.670Z,3.27
2018-12-11T02:02:49.309Z,5.30
2018-12-11T02:07:43.879Z,3.63
2018-12-11T02:12:38.604Z,4.47
2018-12-11T02:17:33.272Z,3.30
2018-12-11T02:22:27.917Z,3.13
2018-12-11T02:27:33.211Z,4.67
2018-12-11T02:48:33.773Z,4.00
2018-12-11T02:53:34.544Z,4.10
2018-12-11T03:09:31.620Z,3.90
2018-12-11T03:14:32.973Z,3.77
2018-12-11T03:30:31.334Z,3.90
2018-12-11T03:35:34.003Z,4.77
2018-12-11T03:45:34.672Z,4.87
2018-12-11T03:55:39.547Z,3.80
2018-12-11T04:00:34.331Z,5.70
2018-12-11T04:31:33.189Z,3.50
2018-12-11T04:57:33.467Z,3.40
2018-12-11T05:43:48.539Z,2.00
2018-12-11T05:48:43.452Z,3.77
2018-12-11T05:53:38.134Z,1.80
2018-12-11T05:58:32.868Z,2.33
2018-12-11T06:03:27.641Z,3.17
2018-12-11T06:08:22.538Z,2.10
2018-12-11T06:13:17.273Z,2.10
2018-12-11T06:18:12.036Z,2.53
2018-12-11T06:23:07.824Z,2.37
2018-12-11T06:28:04.211Z,2.10
2018-12-11T06:32:58.862Z,5.00
2018-12-11T06:37:53.697Z,2.30
2018-12-11T06:42:48.470Z,3.07
2018-12-11T06:47:43.202Z,1.60
2018-12-11T06:58:33.853Z,1.77
2018-12-11T07:20:00.069Z,4.70
2018-12-11T07:24:57.277Z,4.37
2018-12-11T07:29:51.916Z,2.60
2018-12-11T07:34:46.553Z,1.47
2018-12-11T07:39:41.223Z,2.43
2018-12-11T07:44:35.920Z,2.00
2018-12-11T07:49:30.598Z,1.90
2018-12-11T07:54:25.217Z,1.70
2018-12-11T07:59:20.026Z,2.33
2018-12-11T08:04:14.654Z,3.63
2018-12-11T08:09:09.347Z,3.83
2018-12-11T08:14:04.371Z,3.53
2018-12-11T08:18:59.371Z,2.13
2018-12-11T08:23:54.211Z,2.90
2018-12-11T08:28:48.854Z,3.47
2018-12-11T08:33:43.611Z,3.73
2018-12-11T08:38:38.224Z,1.67
2018-12-11T08:43:32.892Z,3.33
2018-12-11T08:48:27.486Z,3.33
2018-12-11T08:53:22.167Z,4.07
2018-12-11T08:58:16.901Z,4.33
2018-12-11T09:03:11.580Z,4.73
2018-12-11T09:08:06.162Z,3.07
2018-12-11T09:13:00.797Z,4.03
2018-12-11T09:17:55.479Z,5.73
2018-12-11T09:22:50.188Z,4.73
2018-12-11T09:27:44.918Z,5.33
2018-12-11T09:32:39.496Z,7.37
2018-12-11T09:37:34.131Z,10.60
2018-12-11T09:42:28.819Z,11.33
2018-12-11T09:47:23.418Z,11.73
2018-12-11T09:52:18.152Z,9.83
2018-12-11T10:12:54.347Z,9.90
2018-12-11T10:23:02.040Z,8.33
2018-12-11T10:27:56.653Z,6.30
2018-12-11T10:32:52.256Z,5.27
2018-12-11T10:37:46.904Z,5.23
2018-12-11T10:42:41.617Z,5.27
2018-12-11T10:47:36.501Z,5.43
2018-12-11T10:52:31.138Z,6.53
2018-12-11T10:57:25.784Z,7.20
2018-12-11T11:02:23.664Z,8.53
2018-12-11T11:07:18.396Z,6.53
2018-12-11T11:12:13.032Z,6.53
2018-12-11T11:17:07.748Z,6.53
2018-12-11T11:22:02.381Z,7.93
2018-12-11T11:26:56.963Z,9.13
2018-12-11T11:31:51.591Z,6.83
2018-12-11T11:36:46.195Z,7.17
2018-12-11T11:41:40.965Z,4.13
2018-12-11T11:46:35.711Z,6.30
2018-12-11T11:51:30.338Z,3.53
2018-12-11T11:56:24.953Z,1.97
2018-12-11T12:01:19.731Z,2.40
2018-12-11T12:06:14.348Z,3.97
2018-12-11T12:11:09.180Z,4.97
2018-12-11T12:16:03.753Z,3.33
2018-12-11T12:20:58.936Z,3.43
2018-12-11T12:26:56.359Z,2.83
2018-12-11T12:31:51.000Z,2.40
2018-12-11T12:36:45.842Z,3.17
2018-12-11T12:41:40.514Z,2.50
2018-12-11T12:46:35.186Z,2.90
2018-12-11T12:51:29.800Z,2.77
2018-12-11T12:56:24.572Z,5.23
2018-12-11T13:01:19.334Z,3.50
2018-12-11T13:06:14.242Z,3.67
2018-12-11T13:11:08.875Z,3.87
2018-12-11T13:16:03.526Z,3.20
2018-12-11T13:20:58.316Z,3.27
2018-12-11T13:25:52.988Z,3.37
2018-12-11T13:31:50.702Z,4.03
2018-12-11T13:36:45.371Z,3.40
2018-12-11T13:41:40.067Z,3.87
2018-12-11T13:46:34.965Z,2.10
2018-12-11T13:51:29.669Z,3.13
2018-12-11T13:56:24.312Z,2.97
2018-12-11T14:01:18.933Z,2.10
2018-12-11T14:06:13.564Z,2.23
2018-12-11T14:11:08.302Z,2.80
2018-12-11T14:16:02.939Z,2.50
2018-12-11T14:20:57.738Z,3.70
2018-12-11T14:25:52.402Z,1.30
2018-12-11T14:30:47.073Z,1.37
2018-12-11T14:35:41.811Z,1.87
2018-12-11T14:40:36.517Z,1.40
2018-12-11T14:45:31.198Z,1.83
2018-12-11T14:50:25.966Z,1.47
2018-12-11T14:55:20.777Z,2.80
2018-12-11T15:00:15.558Z,2.50
2018-12-11T15:05:10.666Z,4.97
2018-12-11T15:10:07.791Z,6.47
2018-12-11T15:15:02.426Z,4.33
2018-12-11T15:19:57.178Z,4.47
2018-12-11T15:24:51.922Z,2.83
2018-12-11T15:29:46.591Z,3.23
2018-12-11T15:34:41.351Z,3.97
2018-12-11T15:39:36.801Z,2.87
2018-12-11T15:44:31.500Z,3.90
2018-12-11T15:49:26.122Z,3.87
2018-12-11T15:54:20.770Z,3.27
2018-12-11T15:59:15.488Z,4.33
2018-12-11T16:04:10.171Z,6.87
2018-12-11T16:09:11.148Z,8.40
2018-12-11T16:14:05.782Z,5.53
2018-12-11T16:19:00.459Z,6.73
2018-12-11T16:23:55.119Z,2.67
2018-12-11T16:28:49.938Z,3.70
2018-12-11T16:39:10.983Z,5.50
2018-12-11T16:44:05.679Z,2.20
2018-12-11T16:49:00.391Z,6.53
2018-12-11T16:53:55.029Z,6.10
2018-12-11T16:58:49.664Z,7.93
2018-12-11T17:03:44.463Z,10.43
2018-12-11T17:08:39.432Z,10.37
2018-12-11T17:13:34.124Z,9.27
2018-12-11T17:18:28.949Z,6.63
2018-12-11T17:23:23.752Z,4.73
2018-12-11T17:28:18.427Z,7.77
2018-12-11T17:33:18.838Z,5.33
2018-12-11T17:38:29.691Z,4.40
2018-12-11T17:43:37.239Z,3.10
2018-12-11T17:48:32.476Z,6.77
2018-12-11T17:53:43.075Z,3.03
2018-12-11T17:58:37.786Z,4.57
2018-12-11T18:03:32.607Z,5.00
2018-12-11T18:08:27.326Z,4.90
2018-12-11T18:13:22.072Z,4.47
2018-12-11T18:18:16.700Z,12.23
2018-12-11T18:23:11.356Z,16.00
2018-12-11T18:28:06.168Z,7.07
2018-12-11T18:33:01.130Z,5.50
2018-12-11T18:37:55.795Z,6.87
2018-12-11T18:42:50.701Z,3.70
2018-12-11T18:47:49.874Z,6.17
2018-12-11T18:52:42.176Z,5.67
2018-12-11T18:57:36.857Z,6.43
2018-12-11T19:02:31.503Z,7.77
2018-12-11T19:07:26.301Z,10.00
2018-12-11T19:12:20.983Z,8.57
2018-12-11T19:17:15.665Z,7.33
2018-12-11T19:22:10.367Z,6.50
2018-12-11T19:27:04.997Z,9.23
2018-12-11T19:31:59.659Z,5.60
2018-12-11T19:36:54.596Z,24.07
2018-12-11T19:41:49.229Z,16.50
2018-12-11T19:46:43.869Z,10.23
2018-12-11T19:51:38.518Z,9.20
2018-12-11T19:56:33.167Z,8.23
2018-12-11T20:01:27.828Z,9.80
2018-12-11T20:06:22.516Z,4.27
2018-12-11T20:11:17.360Z,9.30
2018-12-11T20:16:12.090Z,3.67
2018-12-11T20:21:07.092Z,3.73
2018-12-11T20:26:01.772Z,4.23
2018-12-11T20:30:56.701Z,3.77
2018-12-11T20:35:51.487Z,2.97
2018-12-11T20:40:46.185Z,3.87
2018-12-11T20:45:40.845Z,4.67
2018-12-11T20:50:35.645Z,3.33
2018-12-11T20:55:30.387Z,2.77
2018-12-11T21:00:51.397Z,4.07
2018-12-11T21:05:46.149Z,3.53
2018-12-11T21:10:45.943Z,2.97
2018-12-11T21:15:40.709Z,2.83
2018-12-11T21:20:35.401Z,2.90
2018-12-11T21:25:30.161Z,4.23
2018-12-11T21:30:24.893Z,3.20
2018-12-11T21:35:19.567Z,4.43
2018-12-11T21:40:14.447Z,5.07
2018-12-11T21:45:09.367Z,6.00
2018-12-11T21:50:05.293Z,6.10
2018-12-11T21:54:59.902Z,4.33
2018-12-11T21:59:54.587Z,4.17
2018-12-11T22:10:19.824Z,7.37
2018-12-11T22:15:14.566Z,8.67
2018-12-11T22:20:09.466Z,9.40
2018-12-11T22:25:04.257Z,8.10
2018-12-11T22:29:58.883Z,7.30
2018-12-11T22:34:53.515Z,7.10
2018-12-11T22:45:23.782Z,8.90
2018-12-11T22:50:21.658Z,10.87
2018-12-11T22:55:23.685Z,8.07
2018-12-11T23:00:19.145Z,9.10
2018-12-11T23:05:18.946Z,10.53
2018-12-11T23:10:21.699Z,12.80
2018-12-11T23:15:23.337Z,6.30
2018-12-11T23:20:21.703Z,5.90
2018-12-11T23:25:16.384Z,5.07
2018-12-11T23:35:25.794Z,3.37
2018-12-11T23:40:20.408Z,9.90
2018-12-11T23:45:15.168Z,4.13
2018-12-11T23:50:09.791Z,5.87
2018-12-11T23:55:04.868Z,7.27
2018-12-11T23:59:59.593Z,7.87
